EGXP

RAF Scampton Airport

Scampton, United Kingdom
METAR EGXP 182050Z AUTO 21009KT 9999 // BKN032/// 20/16 Q1017
Observed Flight Rules
Aug-18 @ 20:50 UTC (an hour ago) Visual Flight Rules
Wind Visibility Clouds
210° at 9 knots 10,000+ meters
  • Broken at 3,200' AGL
Temperatures Readings
Current 20°C / 68°F
Dewpoint 16°C / 61°F
Humidity 78%
Altimeter 30.03" Hg
Pressure 1017 hPa
Elevation 61
METAR EGXP 182050Z AUTO 21009KT 9999 // BKN032/// 20/16 Q1017
Observed Flight Rules
Aug-18 @ 20:50 UTC
(an hour ago)
VFR
Wind Visibility
210° at 9 knots 10,000+ meters
Clouds
  • Broken at 3,200' AGL
Temperature Dewpoint
20°C / 68°F 16°C / 61°F
Humidity Altimeter Pressure
78% 30.03" Hg 1017 hPa